createdAt,value
2018-04-11T00:01:30.892Z,84.60
2018-04-11T00:03:58.544Z,84.99
2018-04-11T00:06:26.279Z,84.42
2018-04-11T00:08:54.181Z,84.02
2018-04-11T00:11:21.807Z,83.89
2018-04-11T00:13:49.436Z,84.51
2018-04-11T00:16:17.093Z,84.58
2018-04-11T00:18:44.715Z,84.77
2018-04-11T00:21:12.373Z,84.84
2018-04-11T00:23:39.999Z,85.01
2018-04-11T00:26:07.934Z,84.62
2018-04-11T00:28:35.669Z,84.65
2018-04-11T00:31:03.296Z,84.67
2018-04-11T00:33:30.944Z,84.36
2018-04-11T00:35:58.577Z,84.24
2018-04-11T00:38:26.215Z,84.04
2018-04-11T00:40:53.834Z,84.18
2018-04-11T00:43:21.497Z,83.73
2018-04-11T00:45:49.145Z,83.77
2018-04-11T00:48:16.771Z,83.58
2018-04-11T00:50:44.435Z,83.49
2018-04-11T00:53:32.022Z,83.05
2018-04-11T00:55:59.687Z,83.08
2018-04-11T00:58:27.323Z,83.31
2018-04-11T01:00:55.358Z,83.25
2018-04-11T01:03:22.983Z,83.15
2018-04-11T01:05:50.604Z,83.11
2018-04-11T01:08:18.252Z,83.55
2018-04-11T01:10:45.867Z,82.72
2018-04-11T01:13:13.510Z,82.38
2018-04-11T01:15:41.279Z,82.85
2018-04-11T01:18:08.907Z,82.78
2018-04-11T01:20:36.556Z,83.00
2018-04-11T01:23:04.180Z,81.93
2018-04-11T01:25:31.828Z,82.53
2018-04-11T01:27:59.529Z,82.22
2018-04-11T01:30:27.207Z,82.87
2018-04-11T01:32:54.823Z,83.77
2018-04-11T01:35:22.456Z,84.17
2018-04-11T01:37:50.099Z,83.38
2018-04-11T01:40:17.723Z,83.73
2018-04-11T01:42:45.387Z,83.73
2018-04-11T01:45:13.015Z,83.68
2018-04-11T01:47:40.859Z,83.91
2018-04-11T01:50:08.475Z,84.85
2018-04-11T01:52:36.107Z,84.72
2018-04-11T01:55:03.763Z,84.11
2018-04-11T01:57:31.388Z,84.21
2018-04-11T01:59:59.043Z,84.92
2018-04-11T02:02:26.667Z,84.14
2018-04-11T02:04:54.585Z,84.47
2018-04-11T02:07:22.216Z,84.43
2018-04-11T02:09:49.850Z,84.57
2018-04-11T02:12:17.523Z,84.48
2018-04-11T02:14:45.219Z,84.84
2018-04-11T02:17:12.871Z,84.16
2018-04-11T02:19:40.499Z,84.48
2018-04-11T02:22:08.163Z,84.45
2018-04-11T02:24:35.799Z,84.12
2018-04-11T02:27:03.429Z,83.85
2018-04-11T02:29:31.083Z,83.86
2018-04-11T02:31:58.719Z,84.09
2018-04-11T02:34:26.397Z,84.24
2018-04-11T02:36:54.037Z,84.26
2018-04-11T02:39:21.707Z,84.88
2018-04-11T02:41:49.340Z,84.88
2018-04-11T02:44:16.967Z,84.80
2018-04-11T02:46:44.620Z,84.81
2018-04-11T02:49:12.252Z,85.56
2018-04-11T02:51:39.916Z,85.03
2018-04-11T02:54:07.547Z,85.25
2018-04-11T02:56:35.491Z,84.51
2018-04-11T02:59:03.127Z,84.91
2018-04-11T03:01:30.756Z,84.31
2018-04-11T03:03:58.424Z,84.56
2018-04-11T03:06:26.132Z,84.79
2018-04-11T03:08:53.791Z,84.92
2018-04-11T03:11:21.454Z,84.94
2018-04-11T03:13:49.120Z,85.63
2018-04-11T03:16:16.742Z,85.41
2018-04-11T03:18:44.383Z,85.29
2018-04-11T03:21:12.607Z,84.88
2018-04-11T03:23:40.290Z,84.35
2018-04-11T03:26:07.943Z,85.15
2018-04-11T03:28:35.580Z,84.40
2018-04-11T03:31:03.256Z,84.62
2018-04-11T03:33:30.893Z,84.52
2018-04-11T03:35:58.540Z,84.25
2018-04-11T03:38:26.253Z,84.58
2018-04-11T03:40:53.874Z,84.19
2018-04-11T03:43:21.531Z,84.18
2018-04-11T03:45:49.238Z,83.95
2018-04-11T03:48:17.014Z,84.03
2018-04-11T03:50:44.644Z,84.06
2018-04-11T03:53:12.280Z,83.64
2018-04-11T03:55:39.950Z,83.51
2018-04-11T03:58:07.579Z,83.51
2018-04-11T04:00:35.236Z,84.06
2018-04-11T04:03:02.867Z,83.24
2018-04-11T04:05:30.524Z,83.05
2018-04-11T04:07:58.154Z,83.64
2018-04-11T04:10:25.829Z,83.21
2018-04-11T04:12:53.459Z,83.64
2018-04-11T04:15:32.835Z,83.59
2018-04-11T04:18:12.198Z,83.08
2018-04-11T04:20:40.198Z,83.77
2018-04-11T04:23:07.824Z,83.80
2018-04-11T04:25:35.463Z,83.06
2018-04-11T04:28:03.125Z,83.54
2018-04-11T04:30:30.771Z,82.82
2018-04-11T04:32:58.437Z,83.17
2018-04-11T04:35:26.070Z,83.74
2018-04-11T04:37:53.924Z,82.90
2018-04-11T04:40:21.561Z,83.19
2018-04-11T04:42:49.200Z,82.86
2018-04-11T04:45:16.852Z,82.59
2018-04-11T04:47:44.489Z,82.98
2018-04-11T04:50:12.137Z,83.12
2018-04-11T04:52:39.774Z,83.12
2018-04-11T04:55:07.446Z,83.20
2018-04-11T04:57:35.082Z,83.65
2018-04-11T05:00:02.989Z,83.23
2018-04-11T05:02:30.633Z,83.00
2018-04-11T05:04:58.272Z,82.97
2018-04-11T05:07:25.959Z,83.00
2018-04-11T05:09:53.590Z,82.91
2018-04-11T05:12:21.242Z,82.72
2018-04-11T05:14:48.951Z,82.54
2018-04-11T05:17:16.871Z,82.51
2018-04-11T05:19:44.546Z,82.56
2018-04-11T05:22:12.180Z,82.62
2018-04-11T05:24:39.848Z,82.66
2018-04-11T05:27:07.476Z,82.48
2018-04-11T05:29:35.151Z,82.21
2018-04-11T05:32:02.815Z,82.50
2018-04-11T05:34:30.976Z,82.34
2018-04-11T05:36:58.663Z,82.26
2018-04-11T05:39:26.298Z,82.33
2018-04-11T05:41:54.052Z,81.84
2018-04-11T05:44:21.688Z,81.65
2018-04-11T05:46:49.599Z,81.95
2018-04-11T05:49:17.226Z,82.19
2018-04-11T05:51:44.856Z,81.82
2018-04-11T05:54:12.505Z,81.84
2018-04-11T05:56:40.187Z,81.35
2018-04-11T05:59:08.031Z,81.14
2018-04-11T06:01:35.761Z,80.45
2018-04-11T06:04:03.388Z,80.88
2018-04-11T06:06:31.043Z,79.82
2018-04-11T06:08:58.683Z,80.07
2018-04-11T06:11:26.412Z,80.04
2018-04-11T06:13:54.042Z,79.67
2018-04-11T06:16:21.942Z,79.71
2018-04-11T06:18:49.579Z,79.35
2018-04-11T06:21:17.221Z,78.57
2018-04-11T06:23:44.876Z,78.50
2018-04-11T06:26:12.507Z,77.92
2018-04-11T06:28:40.159Z,78.38
2018-04-11T06:31:07.783Z,77.60
2018-04-11T06:33:35.803Z,77.51
2018-04-11T06:36:03.452Z,77.22
2018-04-11T06:38:31.106Z,78.36
2018-04-11T06:40:58.761Z,79.04
2018-04-11T06:43:26.397Z,77.69
2018-04-11T06:45:54.050Z,77.16
2018-04-11T06:48:21.687Z,77.46
2018-04-11T06:50:49.748Z,77.55
2018-04-11T06:53:17.377Z,78.14
2018-04-11T06:55:45.000Z,77.15
2018-04-11T06:58:12.676Z,76.18
2018-04-11T07:00:40.316Z,75.80
2018-04-11T07:03:07.980Z,75.49
2018-04-11T07:05:35.630Z,75.54
2018-04-11T07:08:03.448Z,75.46
2018-04-11T07:10:31.220Z,76.99
2018-04-11T07:12:58.852Z,75.98
2018-04-11T07:15:26.510Z,76.02
2018-04-11T07:17:54.209Z,75.19
2018-04-11T07:20:21.899Z,75.67
2018-04-11T07:22:49.529Z,75.78
2018-04-11T07:25:17.198Z,75.49
2018-04-11T07:27:44.827Z,75.83
2018-04-11T07:30:12.505Z,76.15
2018-04-11T07:32:40.147Z,74.27
2018-04-11T07:35:08.357Z,73.19
2018-04-11T07:37:36.099Z,73.35
2018-04-11T07:40:03.910Z,73.00
2018-04-11T07:42:31.875Z,72.20
2018-04-11T07:44:59.836Z,71.93
2018-04-11T07:47:29.809Z,73.37
2018-04-11T07:49:57.845Z,74.43
2018-04-11T07:52:25.652Z,74.12
2018-04-11T07:54:53.300Z,73.25
2018-04-11T07:57:20.920Z,72.84
2018-04-11T07:59:48.559Z,71.29
2018-04-11T08:02:16.196Z,71.62
2018-04-11T08:04:44.023Z,72.04
2018-04-11T08:07:11.883Z,72.21
2018-04-11T08:09:40.045Z,72.46
2018-04-11T08:12:08.030Z,72.88
2018-04-11T08:14:35.664Z,72.82
2018-04-11T08:17:03.581Z,72.43
2018-04-11T08:19:31.243Z,72.74
2018-04-11T08:22:03.960Z,74.34
2018-04-11T08:24:34.178Z,74.01
2018-04-11T08:27:02.490Z,73.96
2018-04-11T08:29:30.207Z,72.82
2018-04-11T08:32:02.296Z,72.30
2018-04-11T08:34:36.455Z,72.34
2018-04-11T08:37:10.653Z,73.18
2018-04-11T08:39:41.538Z,72.56
2018-04-11T08:42:10.189Z,72.54
2018-04-11T08:44:38.695Z,72.97
2018-04-11T08:47:08.343Z,72.90
2018-04-11T08:49:38.178Z,71.21
2018-04-11T08:52:08.021Z,70.42
2018-04-11T08:54:36.998Z,69.37
2018-04-11T08:57:05.161Z,69.08
2018-04-11T08:59:38.112Z,69.93
2018-04-11T09:02:11.878Z,69.51
2018-04-11T09:04:44.343Z,69.64
2018-04-11T09:07:18.273Z,69.25
2018-04-11T09:09:54.512Z,68.31
2018-04-11T09:12:25.010Z,68.79
2018-04-11T09:14:59.782Z,67.79
2018-04-11T09:17:36.096Z,66.92
2018-04-11T09:20:08.305Z,68.30
2018-04-11T09:22:39.212Z,68.61
2018-04-11T09:25:07.187Z,68.65
2018-04-11T09:27:35.058Z,68.49
2018-04-11T09:30:08.470Z,67.46
2018-04-11T09:32:37.690Z,66.96
2018-04-11T09:35:07.144Z,65.41
2018-04-11T09:37:36.690Z,62.00
2018-04-11T09:40:04.981Z,61.80
2018-04-11T09:42:33.351Z,61.98
2018-04-11T09:45:01.514Z,61.30
2018-04-11T09:47:29.183Z,60.06
2018-04-11T09:50:02.818Z,57.52
2018-04-11T09:52:31.932Z,58.32
2018-04-11T09:55:00.574Z,56.73
2018-04-11T09:57:28.215Z,55.68
2018-04-11T09:59:55.851Z,55.82
2018-04-11T10:02:24.321Z,55.27
2018-04-11T10:04:52.027Z,56.13
2018-04-11T10:07:19.651Z,54.61
2018-04-11T10:09:47.483Z,55.69
2018-04-11T10:12:15.493Z,57.96
2018-04-11T10:14:43.539Z,59.27
2018-04-11T10:17:14.802Z,59.55
2018-04-11T10:19:42.907Z,60.04
2018-04-11T10:22:10.552Z,60.11
2018-04-11T10:24:38.307Z,59.60
2018-04-11T10:27:05.962Z,59.81
2018-04-11T10:29:33.596Z,59.33
2018-04-11T10:32:01.317Z,59.24
2018-04-11T10:34:28.995Z,56.91
2018-04-11T10:36:56.625Z,58.56
2018-04-11T10:39:24.371Z,57.02
2018-04-11T10:41:51.998Z,57.93
2018-04-11T10:44:19.637Z,57.12
2018-04-11T10:46:47.282Z,59.14
2018-04-11T10:49:14.939Z,58.25
2018-04-11T10:51:42.583Z,55.91
2018-04-11T10:54:10.199Z,56.27
2018-04-11T10:56:37.835Z,55.82
2018-04-11T10:59:05.455Z,56.30
2018-04-11T11:01:33.135Z,58.41
2018-04-11T11:04:00.763Z,57.01
2018-04-11T11:06:28.394Z,55.84
2018-04-11T11:08:56.033Z,55.62
2018-04-11T11:11:23.683Z,55.59
2018-04-11T11:13:51.327Z,55.63
2018-04-11T11:16:20.211Z,55.09
2018-04-11T11:18:47.942Z,54.27
2018-04-11T11:21:15.628Z,53.34
2018-04-11T11:23:43.668Z,54.35
2018-04-11T11:26:11.670Z,53.61
2018-04-11T11:28:39.290Z,53.68
2018-04-11T11:31:06.937Z,53.75
2018-04-11T11:33:34.586Z,53.00
2018-04-11T11:36:02.504Z,52.48
2018-04-11T11:38:30.171Z,55.81
2018-04-11T11:40:57.795Z,52.76
2018-04-11T11:43:25.441Z,51.13
2018-04-11T11:45:53.121Z,52.20
2018-04-11T11:48:20.787Z,50.77
2018-04-11T11:50:48.689Z,51.73
2018-04-11T11:53:16.698Z,50.92
2018-04-11T11:55:44.742Z,50.50
2018-04-11T11:58:12.354Z,49.79
2018-04-11T12:00:40.205Z,50.24
2018-04-11T12:03:07.823Z,51.18
2018-04-11T12:05:35.451Z,51.68
2018-04-11T12:08:03.087Z,51.76
2018-04-11T12:10:30.755Z,51.32
2018-04-11T12:12:58.420Z,50.86
2018-04-11T12:15:26.044Z,51.45
2018-04-11T12:17:53.679Z,51.68
2018-04-11T12:20:21.319Z,47.83
2018-04-11T12:22:48.957Z,47.95
2018-04-11T12:25:18.430Z,47.70
2018-04-11T12:27:46.523Z,49.62
2018-04-11T12:30:14.156Z,46.44
2018-04-11T12:32:41.795Z,46.34
2018-04-11T12:35:09.542Z,46.89
2018-04-11T12:37:37.279Z,46.19
2018-04-11T12:40:04.907Z,44.76
2018-04-11T12:42:32.535Z,45.71
2018-04-11T12:45:00.185Z,45.50
2018-04-11T12:47:27.803Z,46.59
2018-04-11T12:49:55.808Z,47.00
2018-04-11T12:52:23.433Z,46.24
2018-04-11T12:54:51.522Z,44.49
2018-04-11T12:57:19.488Z,43.66
2018-04-11T12:59:47.456Z,44.20
2018-04-11T13:02:15.531Z,45.19
2018-04-11T13:04:43.259Z,46.96
2018-04-11T13:07:11.353Z,47.20
2018-04-11T13:09:39.126Z,48.47
2018-04-11T13:12:06.968Z,49.59
2018-04-11T13:14:35.113Z,48.98
2018-04-11T13:17:03.136Z,50.42
2018-04-11T13:19:31.011Z,50.33
2018-04-11T13:21:58.873Z,50.20
2018-04-11T13:24:26.891Z,50.86
2018-04-11T13:26:54.729Z,51.32
2018-04-11T13:29:22.779Z,51.28
2018-04-11T13:31:50.650Z,49.53
2018-04-11T13:34:19.548Z,47.45
2018-04-11T13:36:48.519Z,44.85
2018-04-11T13:39:16.140Z,43.26
2018-04-11T13:41:43.786Z,42.76
2018-04-11T13:44:11.411Z,44.57
2018-04-11T13:46:39.784Z,46.86
2018-04-11T13:49:07.425Z,48.00
2018-04-11T13:51:35.215Z,47.07
2018-04-11T13:54:03.311Z,47.23
2018-04-11T13:56:31.380Z,46.85
2018-04-11T13:59:01.451Z,47.41
2018-04-11T14:01:29.802Z,47.71
2018-04-11T14:03:57.462Z,47.53
2018-04-11T14:06:25.100Z,48.80
2018-04-11T14:08:52.724Z,48.27
2018-04-11T14:11:21.526Z,48.10
2018-04-11T14:13:49.696Z,47.59
2018-04-11T14:16:17.360Z,47.56
2018-04-11T14:18:44.991Z,47.28
2018-04-11T14:21:12.859Z,47.79
2018-04-11T14:23:40.776Z,46.63
2018-04-11T14:26:08.853Z,45.20
2018-04-11T14:28:37.024Z,44.41
2018-04-11T14:31:04.840Z,46.81
2018-04-11T14:33:32.494Z,45.49
2018-04-11T14:36:00.167Z,45.67
2018-04-11T14:38:27.864Z,45.92
2018-04-11T14:40:55.527Z,47.55
2018-04-11T14:43:23.153Z,47.65
2018-04-11T14:45:50.852Z,45.85
2018-04-11T14:48:18.503Z,47.25
2018-04-11T14:50:46.177Z,47.61
2018-04-11T14:53:13.847Z,47.21
2018-04-11T14:55:42.028Z,48.00
2018-04-11T14:58:10.007Z,48.12
2018-04-11T15:00:37.623Z,47.26
2018-04-11T15:03:05.682Z,47.56
2018-04-11T15:05:33.534Z,47.96
2018-04-11T15:08:01.187Z,47.72
2018-04-11T15:10:28.807Z,46.71
2018-04-11T15:12:56.672Z,46.97
2018-04-11T15:15:24.482Z,46.64
2018-04-11T15:17:52.565Z,46.71
2018-04-11T15:20:20.226Z,46.72
2018-04-11T15:22:47.873Z,47.04
2018-04-11T15:25:15.822Z,46.23
2018-04-11T15:27:43.898Z,44.98
2018-04-11T15:30:17.002Z,45.90
2018-04-11T15:32:45.051Z,45.63
2018-04-11T15:35:12.668Z,44.94
2018-04-11T15:37:40.326Z,45.07
2018-04-11T15:40:07.942Z,45.71
2018-04-11T15:42:35.697Z,45.18
2018-04-11T15:45:03.313Z,44.84
2018-04-11T15:47:30.974Z,45.53
2018-04-11T15:49:58.624Z,44.96
2018-04-11T15:52:26.552Z,45.38
2018-04-11T15:54:54.164Z,45.09
2018-04-11T15:57:21.780Z,44.82
2018-04-11T15:59:49.428Z,45.93
2018-04-11T16:02:17.063Z,47.07
2018-04-11T16:04:44.707Z,46.60
2018-04-11T16:07:12.433Z,46.48
2018-04-11T16:09:40.118Z,44.44
2018-04-11T16:12:07.765Z,44.22
2018-04-11T16:14:35.514Z,43.11
2018-04-11T16:17:03.154Z,44.21
2018-04-11T16:19:30.771Z,42.62
2018-04-11T16:21:58.410Z,42.46
2018-04-11T16:24:26.035Z,41.32
2018-04-11T16:26:54.161Z,40.76
2018-04-11T16:29:21.780Z,40.80
2018-04-11T16:31:49.424Z,40.75
2018-04-11T16:34:17.118Z,39.53
2018-04-11T16:36:44.739Z,38.48
2018-04-11T16:39:12.393Z,37.97
2018-04-11T16:41:40.009Z,38.91
2018-04-11T16:44:07.653Z,38.43
2018-04-11T16:46:35.279Z,38.69
2018-04-11T16:49:02.927Z,38.28
2018-04-11T16:51:30.551Z,38.44
2018-04-11T16:53:58.267Z,39.10
2018-04-11T16:56:25.891Z,39.32
2018-04-11T16:58:53.543Z,39.41
2018-04-11T17:01:21.168Z,39.35
2018-04-11T17:03:48.843Z,39.68
2018-04-11T17:06:16.465Z,39.76
2018-04-11T17:08:44.087Z,39.81
2018-04-11T17:11:12.039Z,39.19
2018-04-11T17:13:39.672Z,40.07
2018-04-11T17:16:07.340Z,40.45
2018-04-11T17:18:34.958Z,40.44
2018-04-11T17:24:20.081Z,39.95
2018-04-11T17:26:59.554Z,39.97
2018-04-11T17:29:39.120Z,39.57
2018-04-11T17:32:06.767Z,39.70
2018-04-11T17:34:34.357Z,39.84
2018-04-11T17:37:01.939Z,40.23
2018-04-11T17:39:29.559Z,40.17
2018-04-11T17:41:57.154Z,41.08
2018-04-11T17:44:24.766Z,41.92
2018-04-11T17:46:52.389Z,41.98
2018-04-11T17:49:22.252Z,42.45
2018-04-11T17:51:49.838Z,42.71
2018-04-11T17:54:17.437Z,43.23
2018-04-11T17:56:45.133Z,43.95
2018-04-11T17:59:12.725Z,44.21
2018-04-11T18:01:40.353Z,44.52
2018-04-11T18:04:07.955Z,44.94
2018-04-11T18:06:35.895Z,45.37
2018-04-11T18:09:03.514Z,45.55
2018-04-11T18:11:31.119Z,45.98
2018-04-11T18:13:58.753Z,46.46
2018-04-11T18:16:26.346Z,46.82
2018-04-11T18:18:54.095Z,47.04
2018-04-11T18:21:21.693Z,47.35
2018-04-11T18:23:49.530Z,47.61
2018-04-11T18:26:17.128Z,47.65
2018-04-11T18:28:44.964Z,47.83
2018-04-11T18:31:12.582Z,48.38
2018-04-11T18:33:40.170Z,48.59
2018-04-11T18:36:07.798Z,48.81
2018-04-11T18:38:35.395Z,48.93
2018-04-11T18:41:03.023Z,49.37
2018-04-11T18:43:30.609Z,49.57
2018-04-11T18:45:58.227Z,50.23
2018-04-11T18:48:25.853Z,50.57
2018-04-11T18:50:53.443Z,50.68
2018-04-11T18:53:21.080Z,50.67
2018-04-11T18:55:48.689Z,51.09
2018-04-11T18:58:16.415Z,51.35
2018-04-11T19:00:44.032Z,51.73
2018-04-11T19:03:11.628Z,51.91
2018-04-11T19:05:39.259Z,52.50
2018-04-11T19:08:06.845Z,52.83
2018-04-11T19:10:34.465Z,53.29
2018-04-11T19:13:02.111Z,53.73
2018-04-11T19:15:29.719Z,53.80
2018-04-11T19:17:57.327Z,54.21
2018-04-11T19:20:24.938Z,54.51
2018-04-11T19:22:52.559Z,54.67
2018-04-11T19:25:20.151Z,54.92
2018-04-11T19:27:47.766Z,55.05
2018-04-11T19:30:15.388Z,55.20
2018-04-11T19:32:43.262Z,55.52
2018-04-11T19:35:10.853Z,55.48
2018-04-11T19:37:38.462Z,55.65
2018-04-11T19:40:06.076Z,56.03
2018-04-11T19:42:33.674Z,56.30
2018-04-11T19:45:01.289Z,56.30
2018-04-11T19:47:28.892Z,56.68
2018-04-11T19:49:56.944Z,56.71
2018-04-11T19:52:24.509Z,57.00
2018-04-11T19:54:52.101Z,57.07
2018-04-11T19:57:19.716Z,57.38
2018-04-11T19:59:47.309Z,57.70
2018-04-11T20:02:14.929Z,57.81
2018-04-11T20:04:42.515Z,58.28
2018-04-11T20:07:10.177Z,58.83
2018-04-11T20:09:37.795Z,58.92
2018-04-11T20:12:05.411Z,59.12
2018-04-11T20:14:33.219Z,59.20
2018-04-11T20:17:00.813Z,59.40
2018-04-11T20:19:28.403Z,59.65
2018-04-11T20:21:56.020Z,59.86
2018-04-11T20:24:23.627Z,60.20
2018-04-11T20:26:51.250Z,60.53
2018-04-11T20:29:18.843Z,60.89
2018-04-11T20:31:46.862Z,61.10
2018-04-11T20:34:14.471Z,61.05
2018-04-11T20:36:42.070Z,61.26
2018-04-11T20:39:09.716Z,61.26
2018-04-11T20:41:37.327Z,61.30
2018-04-11T20:44:04.957Z,61.69
2018-04-11T20:46:32.559Z,61.74
2018-04-11T20:49:00.410Z,61.93
2018-04-11T20:51:28.013Z,62.02
2018-04-11T20:53:55.607Z,62.26
2018-04-11T20:56:23.222Z,62.49
2018-04-11T20:58:50.828Z,62.65
2018-04-11T21:01:18.450Z,63.22
2018-04-11T21:03:46.060Z,63.47
2018-04-11T21:06:13.705Z,63.66
2018-04-11T21:08:41.297Z,63.88
2018-04-11T21:11:08.936Z,64.20
2018-04-11T21:13:36.552Z,64.31
2018-04-11T21:16:04.174Z,64.47
2018-04-11T21:18:31.795Z,64.71
2018-04-11T21:20:59.391Z,65.05
2018-04-11T21:23:27.472Z,65.29
2018-04-11T21:25:55.072Z,65.04
2018-04-11T21:28:22.664Z,65.69
2018-04-11T21:30:50.283Z,66.19
2018-04-11T21:33:17.899Z,66.66
2018-04-11T21:35:45.522Z,66.63
2018-04-11T21:38:13.237Z,66.80
2018-04-11T21:40:41.112Z,66.59
2018-04-11T21:43:08.767Z,66.75
2018-04-11T21:45:36.364Z,67.12
2018-04-11T21:48:04.011Z,67.04
2018-04-11T21:50:31.755Z,67.14
2018-04-11T21:52:59.379Z,67.43
2018-04-11T21:55:26.983Z,67.62
2018-04-11T21:57:54.657Z,67.71
2018-04-11T22:00:22.256Z,67.86
2018-04-11T22:02:49.870Z,67.87
2018-04-11T22:05:17.512Z,68.12
2018-04-11T22:07:45.112Z,68.12
2018-04-11T22:10:12.734Z,68.16
2018-04-11T22:12:40.384Z,68.30
2018-04-11T22:15:08.200Z,68.47
2018-04-11T22:17:35.783Z,68.26
2018-04-11T22:20:03.404Z,68.19
2018-04-11T22:22:31.015Z,68.43
2018-04-11T22:24:58.631Z,68.59
2018-04-11T22:27:26.262Z,68.79
2018-04-11T22:29:53.874Z,68.75
2018-04-11T22:32:21.506Z,69.35
2018-04-11T22:34:49.095Z,69.16
2018-04-11T22:37:16.701Z,69.44
2018-04-11T22:39:44.328Z,69.53
2018-04-11T22:42:11.920Z,69.21
2018-04-11T22:44:39.538Z,69.04
2018-04-11T22:47:07.146Z,69.03
2018-04-11T22:49:34.774Z,68.84
2018-04-11T22:52:02.389Z,68.82
2018-04-11T22:54:29.991Z,68.78
2018-04-11T22:56:57.722Z,69.07
2018-04-11T22:59:25.385Z,68.94
2018-04-11T23:01:53.006Z,69.26
2018-04-11T23:04:20.598Z,69.48
2018-04-11T23:06:48.575Z,69.31
2018-04-11T23:09:16.171Z,69.48
2018-04-11T23:11:43.778Z,69.30
2018-04-11T23:14:11.401Z,69.99
2018-04-11T23:16:39.009Z,70.38
2018-04-11T23:19:06.667Z,70.28
2018-04-11T23:21:34.268Z,70.04
2018-04-11T23:24:01.943Z,70.15
2018-04-11T23:26:29.542Z,70.02
2018-04-11T23:28:57.142Z,70.13
2018-04-11T23:31:24.754Z,70.19
2018-04-11T23:33:52.351Z,70.08
2018-04-11T23:36:19.972Z,69.93
2018-04-11T23:38:47.564Z,69.63
2018-04-11T23:41:15.184Z,69.36
2018-04-11T23:43:42.780Z,69.51
2018-04-11T23:46:10.560Z,69.69
2018-04-11T23:48:38.163Z,69.48
2018-04-11T23:51:05.758Z,69.40
2018-04-11T23:53:33.383Z,69.55
2018-04-11T23:56:00.976Z,69.81
2018-04-11T23:58:28.598Z,69.65
